sensor_id;sensor_type;location;lat;lon;timestamp;temperature;humidity
12815;DHT22;6472;52.328;13.070;2023-05-10T00:02:03;11.40;88.60
12815;DHT22;6472;52.328;13.070;2023-05-10T00:04:31;11.40;89.40
12815;DHT22;6472;52.328;13.070;2023-05-10T00:06:59;11.20;89.60
12815;DHT22;6472;52.328;13.070;2023-05-10T00:09:27;11.10;90.10
12815;DHT22;6472;52.328;13.070;2023-05-10T00:11:55;11.10;90.50
12815;DHT22;6472;52.328;13.070;2023-05-10T00:14:25;11.00;90.60
12815;DHT22;6472;52.328;13.070;2023-05-10T00:16:54;11.00;91.10
12815;DHT22;6472;52.328;13.070;2023-05-10T00:19:22;10.90;91.50
12815;DHT22;6472;52.328;13.070;2023-05-10T00:21:50;10.90;91.60
12815;DHT22;6472;52.328;13.070;2023-05-10T00:24:18;10.90;92.00
12815;DHT22;6472;52.328;13.070;2023-05-10T00:26:46;10.80;92.40
12815;DHT22;6472;52.328;13.070;2023-05-10T00:29:14;10.80;92.70
12815;DHT22;6472;52.328;13.070;2023-05-10T00:31:42;10.70;92.70
12815;DHT22;6472;52.328;13.070;2023-05-10T00:34:11;10.70;93.10
12815;DHT22;6472;52.328;13.070;2023-05-10T00:36:39;10.70;93.20
12815;DHT22;6472;52.328;13.070;2023-05-10T00:39:07;10.70;93.50
12815;DHT22;6472;52.328;13.070;2023-05-10T00:41:35;10.70;93.40
12815;DHT22;6472;52.328;13.070;2023-05-10T00:44:03;10.70;93.80
12815;DHT22;6472;52.328;13.070;2023-05-10T00:46:32;10.70;93.80
12815;DHT22;6472;52.328;13.070;2023-05-10T00:49:00;10.60;94.20
12815;DHT22;6472;52.328;13.070;2023-05-10T00:51:30;10.60;94.80
12815;DHT22;6472;52.328;13.070;2023-05-10T00:53:58;10.50;94.90
12815;DHT22;6472;52.328;13.070;2023-05-10T00:56:26;10.40;95.20
12815;DHT22;6472;52.328;13.070;2023-05-10T00:58:56;10.30;95.40
12815;DHT22;6472;52.328;13.070;2023-05-10T01:01:24;10.30;95.70
12815;DHT22;6472;52.328;13.070;2023-05-10T01:03:53;10.40;96.00
12815;DHT22;6472;52.328;13.070;2023-05-10T01:06:22;10.30;96.10
12815;DHT22;6472;52.328;13.070;2023-05-10T01:08:51;10.30;96.40
12815;DHT22;6472;52.328;13.070;2023-05-10T01:11:19;10.30;96.50
12815;DHT22;6472;52.328;13.070;2023-05-10T01:13:52;10.20;97.00
12815;DHT22;6472;52.328;13.070;2023-05-10T01:16:21;10.20;97.10
12815;DHT22;6472;52.328;13.070;2023-05-10T01:18:50;10.10;97.60
12815;DHT22;6472;52.328;13.070;2023-05-10T01:21:23;10.10;97.90
12815;DHT22;6472;52.328;13.070;2023-05-10T01:24:14;10.10;98.00
12815;DHT22;6472;52.328;13.070;2023-05-10T01:27:20;10.00;98.20
12815;DHT22;6472;52.328;13.070;2023-05-10T01:33:01;10.00;99.00
12815;DHT22;6472;52.328;13.070;2023-05-10T01:35:37;10.00;99.00
12815;DHT22;6472;52.328;13.070;2023-05-10T01:38:15;10.00;99.10
12815;DHT22;6472;52.328;13.070;2023-05-10T01:40:51;10.10;98.90
12815;DHT22;6472;52.328;13.070;2023-05-10T01:43:25;10.00;99.30
12815;DHT22;6472;52.328;13.070;2023-05-10T01:45:59;10.00;99.10
12815;DHT22;6472;52.328;13.070;2023-05-10T01:48:33;10.00;99.30
12815;DHT22;6472;52.328;13.070;2023-05-10T01:51:01;10.00;99.60
12815;DHT22;6472;52.328;13.070;2023-05-10T01:53:31;9.90;99.90
12815;DHT22;6472;52.328;13.070;2023-05-10T01:56:00;9.90;99.90
12815;DHT22;6472;52.328;13.070;2023-05-10T01:58:31;9.80;99.90
12815;DHT22;6472;52.328;13.070;2023-05-10T02:01:01;9.80;99.90
12815;DHT22;6472;52.328;13.070;2023-05-10T02:03:35;9.60;99.90
12815;DHT22;6472;52.328;13.070;2023-05-10T02:06:03;9.80;99.90
12815;DHT22;6472;52.328;13.070;2023-05-10T02:08:33;9.80;99.90
12815;DHT22;6472;52.328;13.070;2023-05-10T02:11:04;9.80;99.90
12815;DHT22;6472;52.328;13.070;2023-05-10T02:13:34;9.70;99.90
12815;DHT22;6472;52.328;13.070;2023-05-10T02:16:05;9.70;99.90
12815;DHT22;6472;52.328;13.070;2023-05-10T02:18:36;9.70;99.90
12815;DHT22;6472;52.328;13.070;2023-05-10T02:21:04;9.60;99.90
12815;DHT22;6472;52.328;13.070;2023-05-10T02:23:33;9.50;99.90
12815;DHT22;6472;52.328;13.070;2023-05-10T02:26:02;9.50;99.90
12815;DHT22;6472;52.328;13.070;2023-05-10T02:28:33;9.50;99.90
12815;DHT22;6472;52.328;13.070;2023-05-10T02:31:05;9.50;99.90
12815;DHT22;6472;52.328;13.070;2023-05-10T02:33:35;9.40;99.90
12815;DHT22;6472;52.328;13.070;2023-05-10T02:36:04;9.40;99.90
12815;DHT22;6472;52.328;13.070;2023-05-10T02:38:32;9.30;99.90
12815;DHT22;6472;52.328;13.070;2023-05-10T02:41:01;9.30;99.90
12815;DHT22;6472;52.328;13.070;2023-05-10T02:43:32;9.40;99.90
12815;DHT22;6472;52.328;13.070;2023-05-10T02:46:01;9.30;99.90
12815;DHT22;6472;52.328;13.070;2023-05-10T02:48:30;9.30;99.90
12815;DHT22;6472;52.328;13.070;2023-05-10T02:51:03;9.40;99.90
12815;DHT22;6472;52.328;13.070;2023-05-10T02:53:34;9.30;99.90
12815;DHT22;6472;52.328;13.070;2023-05-10T02:56:10;9.20;99.90
12815;DHT22;6472;52.328;13.070;2023-05-10T02:58:40;9.20;99.90
12815;DHT22;6472;52.328;13.070;2023-05-10T03:01:08;9.30;99.90
12815;DHT22;6472;52.328;13.070;2023-05-10T03:03:36;9.40;99.90
12815;DHT22;6472;52.328;13.070;2023-05-10T03:06:06;9.40;99.90
12815;DHT22;6472;52.328;13.070;2023-05-10T03:08:34;9.30;99.90
12815;DHT22;6472;52.328;13.070;2023-05-10T03:11:13;9.20;99.90
12815;DHT22;6472;52.328;13.070;2023-05-10T03:13:48;9.20;99.90
12815;DHT22;6472;52.328;13.070;2023-05-10T03:16:27;9.20;99.90
12815;DHT22;6472;52.328;13.070;2023-05-10T03:18:59;9.20;99.90
12815;DHT22;6472;52.328;13.070;2023-05-10T03:21:31;9.30;99.90
12815;DHT22;6472;52.328;13.070;2023-05-10T03:24:05;9.30;99.90
12815;DHT22;6472;52.328;13.070;2023-05-10T03:26:35;9.30;99.90
12815;DHT22;6472;52.328;13.070;2023-05-10T03:29:05;9.20;99.90
12815;DHT22;6472;52.328;13.070;2023-05-10T03:31:34;9.20;99.90
12815;DHT22;6472;52.328;13.070;2023-05-10T03:34:02;9.20;99.90
12815;DHT22;6472;52.328;13.070;2023-05-10T03:36:31;9.20;99.90
12815;DHT22;6472;52.328;13.070;2023-05-10T03:38:59;9.20;99.90
12815;DHT22;6472;52.328;13.070;2023-05-10T03:41:28;9.20;99.90
12815;DHT22;6472;52.328;13.070;2023-05-10T03:43:56;9.20;99.90
12815;DHT22;6472;52.328;13.070;2023-05-10T03:46:24;9.30;99.90
12815;DHT22;6472;52.328;13.070;2023-05-10T03:48:52;9.30;99.90
12815;DHT22;6472;52.328;13.070;2023-05-10T03:51:20;9.20;99.90
12815;DHT22;6472;52.328;13.070;2023-05-10T03:53:50;9.20;99.90
12815;DHT22;6472;52.328;13.070;2023-05-10T03:56:18;9.30;99.90
12815;DHT22;6472;52.328;13.070;2023-05-10T03:58:47;9.30;99.90
12815;DHT22;6472;52.328;13.070;2023-05-10T04:01:15;9.30;99.90
12815;DHT22;6472;52.328;13.070;2023-05-10T04:03:43;9.40;99.90
12815;DHT22;6472;52.328;13.070;2023-05-10T04:06:11;9.40;99.90
12815;DHT22;6472;52.328;13.070;2023-05-10T04:08:39;9.40;99.90
12815;DHT22;6472;52.328;13.070;2023-05-10T04:11:10;9.40;99.90
12815;DHT22;6472;52.328;13.070;2023-05-10T04:13:39;9.30;99.90
12815;DHT22;6472;52.328;13.070;2023-05-10T04:16:07;9.30;99.90
12815;DHT22;6472;52.328;13.070;2023-05-10T04:18:35;9.40;99.90
12815;DHT22;6472;52.328;13.070;2023-05-10T04:21:03;9.40;99.90
12815;DHT22;6472;52.328;13.070;2023-05-10T04:23:31;9.60;99.90
12815;DHT22;6472;52.328;13.070;2023-05-10T04:26:00;9.60;99.90
12815;DHT22;6472;52.328;13.070;2023-05-10T04:28:30;9.70;99.90
12815;DHT22;6472;52.328;13.070;2023-05-10T04:31:02;10.00;99.90
12815;DHT22;6472;52.328;13.070;2023-05-10T04:33:31;10.20;99.90
12815;DHT22;6472;52.328;13.070;2023-05-10T04:36:00;10.30;99.90
12815;DHT22;6472;52.328;13.070;2023-05-10T04:38:28;10.50;99.90
12815;DHT22;6472;52.328;13.070;2023-05-10T04:41:04;10.60;99.90
12815;DHT22;6472;52.328;13.070;2023-05-10T04:43:34;10.70;99.90
12815;DHT22;6472;52.328;13.070;2023-05-10T04:46:02;10.80;99.90
12815;DHT22;6472;52.328;13.070;2023-05-10T04:48:30;10.90;99.90
12815;DHT22;6472;52.328;13.070;2023-05-10T04:50:58;11.10;99.90
12815;DHT22;6472;52.328;13.070;2023-05-10T04:53:26;11.30;99.90
12815;DHT22;6472;52.328;13.070;2023-05-10T04:55:54;11.40;99.90
12815;DHT22;6472;52.328;13.070;2023-05-10T04:58:22;11.60;99.90
12815;DHT22;6472;52.328;13.070;2023-05-10T05:00:51;11.70;99.90
12815;DHT22;6472;52.328;13.070;2023-05-10T05:03:19;11.90;99.60
12815;DHT22;6472;52.328;13.070;2023-05-10T05:05:47;12.00;98.80
12815;DHT22;6472;52.328;13.070;2023-05-10T05:08:15;12.20;99.10
12815;DHT22;6472;52.328;13.070;2023-05-10T05:10:43;12.50;97.80
12815;DHT22;6472;52.328;13.070;2023-05-10T05:13:12;13.10;96.60
12815;DHT22;6472;52.328;13.070;2023-05-10T05:15:40;13.60;94.70
12815;DHT22;6472;52.328;13.070;2023-05-10T05:18:10;14.00;94.60
12815;DHT22;6472;52.328;13.070;2023-05-10T05:20:38;14.10;93.20
12815;DHT22;6472;52.328;13.070;2023-05-10T05:23:06;14.00;92.70
12815;DHT22;6472;52.328;13.070;2023-05-10T05:25:35;14.10;93.10
12815;DHT22;6472;52.328;13.070;2023-05-10T05:28:03;14.20;91.70
12815;DHT22;6472;52.328;13.070;2023-05-10T05:30:31;14.20;91.90
12815;DHT22;6472;52.328;13.070;2023-05-10T05:32:59;14.20;90.70
12815;DHT22;6472;52.328;13.070;2023-05-10T05:35:29;14.20;90.60
12815;DHT22;6472;52.328;13.070;2023-05-10T05:37:56;14.30;90.40
12815;DHT22;6472;52.328;13.070;2023-05-10T05:40:24;14.20;91.30
12815;DHT22;6472;52.328;13.070;2023-05-10T05:42:52;14.30;90.80
12815;DHT22;6472;52.328;13.070;2023-05-10T05:45:20;14.40;90.70
12815;DHT22;6472;52.328;13.070;2023-05-10T05:47:48;14.60;90.40
12815;DHT22;6472;52.328;13.070;2023-05-10T05:50:17;14.60;88.40
12815;DHT22;6472;52.328;13.070;2023-05-10T05:52:46;14.70;89.40
12815;DHT22;6472;52.328;13.070;2023-05-10T05:55:14;14.80;90.30
12815;DHT22;6472;52.328;13.070;2023-05-10T05:57:42;14.90;87.60
12815;DHT22;6472;52.328;13.070;2023-05-10T06:00:11;14.90;88.50
12815;DHT22;6472;52.328;13.070;2023-05-10T06:02:39;14.90;88.50
12815;DHT22;6472;52.328;13.070;2023-05-10T06:05:08;15.00;87.20
12815;DHT22;6472;52.328;13.070;2023-05-10T06:07:36;15.10;90.20
12815;DHT22;6472;52.328;13.070;2023-05-10T06:10:07;15.20;89.10
12815;DHT22;6472;52.328;13.070;2023-05-10T06:12:35;15.30;86.60
12815;DHT22;6472;52.328;13.070;2023-05-10T06:15:03;15.40;90.00
12815;DHT22;6472;52.328;13.070;2023-05-10T06:17:32;15.60;87.40
12815;DHT22;6472;52.328;13.070;2023-05-10T06:20:00;15.70;84.60
12815;DHT22;6472;52.328;13.070;2023-05-10T06:22:28;15.60;86.80
12815;DHT22;6472;52.328;13.070;2023-05-10T06:24:56;15.70;85.80
12815;DHT22;6472;52.328;13.070;2023-05-10T06:27:25;15.90;85.50
12815;DHT22;6472;52.328;13.070;2023-05-10T06:29:53;16.10;82.20
12815;DHT22;6472;52.328;13.070;2023-05-10T06:32:31;16.10;82.10
12815;DHT22;6472;52.328;13.070;2023-05-10T06:34:59;16.20;85.10
12815;DHT22;6472;52.328;13.070;2023-05-10T06:37:27;16.20;82.70
12815;DHT22;6472;52.328;13.070;2023-05-10T06:39:55;16.30;82.90
12815;DHT22;6472;52.328;13.070;2023-05-10T06:42:24;16.40;80.80
12815;DHT22;6472;52.328;13.070;2023-05-10T06:44:53;16.60;79.80
12815;DHT22;6472;52.328;13.070;2023-05-10T06:47:21;16.80;78.70
12815;DHT22;6472;52.328;13.070;2023-05-10T06:49:49;16.80;79.20
12815;DHT22;6472;52.328;13.070;2023-05-10T06:52:18;16.80;79.50
12815;DHT22;6472;52.328;13.070;2023-05-10T06:54:46;16.80;80.40
12815;DHT22;6472;52.328;13.070;2023-05-10T06:57:14;16.90;80.40
12815;DHT22;6472;52.328;13.070;2023-05-10T06:59:59;17.00;76.60
12815;DHT22;6472;52.328;13.070;2023-05-10T07:02:27;16.80;76.40
12815;DHT22;6472;52.328;13.070;2023-05-10T07:04:55;16.80;77.50
12815;DHT22;6472;52.328;13.070;2023-05-10T07:07:28;16.80;77.60
12815;DHT22;6472;52.328;13.070;2023-05-10T07:09:56;16.80;77.60
12815;DHT22;6472;52.328;13.070;2023-05-10T07:12:24;16.90;77.70
12815;DHT22;6472;52.328;13.070;2023-05-10T07:14:52;17.00;77.80
12815;DHT22;6472;52.328;13.070;2023-05-10T07:17:22;17.00;77.00
12815;DHT22;6472;52.328;13.070;2023-05-10T07:19:50;16.90;78.90
12815;DHT22;6472;52.328;13.070;2023-05-10T07:22:21;17.10;77.90
12815;DHT22;6472;52.328;13.070;2023-05-10T07:24:49;17.10;77.90
12815;DHT22;6472;52.328;13.070;2023-05-10T07:27:17;17.30;79.10
12815;DHT22;6472;52.328;13.070;2023-05-10T07:29:44;17.50;78.60
12815;DHT22;6472;52.328;13.070;2023-05-10T07:32:12;17.60;79.40
12815;DHT22;6472;52.328;13.070;2023-05-10T07:34:42;17.80;78.70
12815;DHT22;6472;52.328;13.070;2023-05-10T07:37:10;18.00;77.70
12815;DHT22;6472;52.328;13.070;2023-05-10T07:39:40;18.10;76.50
12815;DHT22;6472;52.328;13.070;2023-05-10T07:42:08;18.40;75.10
12815;DHT22;6472;52.328;13.070;2023-05-10T07:44:36;18.30;74.60
12815;DHT22;6472;52.328;13.070;2023-05-10T07:47:04;18.10;74.60
12815;DHT22;6472;52.328;13.070;2023-05-10T07:49:32;18.20;73.80
12815;DHT22;6472;52.328;13.070;2023-05-10T07:52:03;18.20;78.20
12815;DHT22;6472;52.328;13.070;2023-05-10T07:54:31;18.40;76.50
12815;DHT22;6472;52.328;13.070;2023-05-10T07:56:59;18.50;73.40
12815;DHT22;6472;52.328;13.070;2023-05-10T07:59:27;18.60;75.90
12815;DHT22;6472;52.328;13.070;2023-05-10T08:01:55;18.90;74.00
12815;DHT22;6472;52.328;13.070;2023-05-10T08:04:23;19.00;72.80
12815;DHT22;6472;52.328;13.070;2023-05-10T08:06:51;19.00;75.90
12815;DHT22;6472;52.328;13.070;2023-05-10T08:09:21;19.20;78.50
12815;DHT22;6472;52.328;13.070;2023-05-10T08:11:51;19.50;80.50
12815;DHT22;6472;52.328;13.070;2023-05-10T08:14:19;19.70;71.40
12815;DHT22;6472;52.328;13.070;2023-05-10T08:16:47;19.70;69.00
12815;DHT22;6472;52.328;13.070;2023-05-10T08:19:15;19.80;70.40
12815;DHT22;6472;52.328;13.070;2023-05-10T08:21:45;19.80;69.10
12815;DHT22;6472;52.328;13.070;2023-05-10T08:24:13;19.80;72.10
12815;DHT22;6472;52.328;13.070;2023-05-10T08:26:43;19.70;73.90
12815;DHT22;6472;52.328;13.070;2023-05-10T08:29:11;19.80;69.80
12815;DHT22;6472;52.328;13.070;2023-05-10T08:31:39;19.80;69.60
12815;DHT22;6472;52.328;13.070;2023-05-10T08:34:07;19.80;72.10
12815;DHT22;6472;52.328;13.070;2023-05-10T08:36:35;19.70;72.80
12815;DHT22;6472;52.328;13.070;2023-05-10T08:39:03;19.80;69.80
12815;DHT22;6472;52.328;13.070;2023-05-10T08:41:47;20.00;71.50
12815;DHT22;6472;52.328;13.070;2023-05-10T08:44:15;20.20;72.00
12815;DHT22;6472;52.328;13.070;2023-05-10T08:46:46;20.30;67.90
12815;DHT22;6472;52.328;13.070;2023-05-10T08:49:20;20.40;68.00
12815;DHT22;6472;52.328;13.070;2023-05-10T08:51:52;20.50;70.70
12815;DHT22;6472;52.328;13.070;2023-05-10T08:54:23;20.50;68.90
12815;DHT22;6472;52.328;13.070;2023-05-10T08:56:53;20.50;68.40
12815;DHT22;6472;52.328;13.070;2023-05-10T08:59:21;20.50;71.50
12815;DHT22;6472;52.328;13.070;2023-05-10T09:01:50;20.60;68.60
12815;DHT22;6472;52.328;13.070;2023-05-10T09:04:19;20.60;67.00
12815;DHT22;6472;52.328;13.070;2023-05-10T09:06:47;20.40;68.00
12815;DHT22;6472;52.328;13.070;2023-05-10T09:09:15;20.30;67.40
12815;DHT22;6472;52.328;13.070;2023-05-10T09:11:44;20.20;69.50
12815;DHT22;6472;52.328;13.070;2023-05-10T09:14:15;20.40;68.40
12815;DHT22;6472;52.328;13.070;2023-05-10T09:16:44;20.50;69.40
12815;DHT22;6472;52.328;13.070;2023-05-10T09:19:12;20.70;70.00
12815;DHT22;6472;52.328;13.070;2023-05-10T09:21:40;20.90;66.70
12815;DHT22;6472;52.328;13.070;2023-05-10T09:24:08;20.80;67.80
12815;DHT22;6472;52.328;13.070;2023-05-10T09:26:45;20.90;66.40
12815;DHT22;6472;52.328;13.070;2023-05-10T09:29:15;20.90;67.60
12815;DHT22;6472;52.328;13.070;2023-05-10T09:31:46;20.80;67.10
12815;DHT22;6472;52.328;13.070;2023-05-10T09:34:18;20.70;70.00
12815;DHT22;6472;52.328;13.070;2023-05-10T09:36:55;20.80;66.10
12815;DHT22;6472;52.328;13.070;2023-05-10T09:39:30;20.90;67.90
12815;DHT22;6472;52.328;13.070;2023-05-10T09:42:01;20.90;67.20
12815;DHT22;6472;52.328;13.070;2023-05-10T09:44:32;20.80;70.00
12815;DHT22;6472;52.328;13.070;2023-05-10T09:47:00;21.00;68.10
12815;DHT22;6472;52.328;13.070;2023-05-10T09:49:28;21.10;65.30
12815;DHT22;6472;52.328;13.070;2023-05-10T09:52:01;21.10;67.90
12815;DHT22;6472;52.328;13.070;2023-05-10T09:54:30;21.20;67.80
12815;DHT22;6472;52.328;13.070;2023-05-10T09:56:58;21.20;70.10
12815;DHT22;6472;52.328;13.070;2023-05-10T09:59:27;21.40;63.80
12815;DHT22;6472;52.328;13.070;2023-05-10T10:01:58;21.40;69.00
12815;DHT22;6472;52.328;13.070;2023-05-10T10:04:27;21.40;70.30
12815;DHT22;6472;52.328;13.070;2023-05-10T10:07:00;21.50;64.00
12815;DHT22;6472;52.328;13.070;2023-05-10T10:09:28;21.30;63.00
12815;DHT22;6472;52.328;13.070;2023-05-10T10:11:56;21.00;66.70
12815;DHT22;6472;52.328;13.070;2023-05-10T10:14:25;21.20;68.00
12815;DHT22;6472;52.328;13.070;2023-05-10T10:16:54;21.10;66.30
12815;DHT22;6472;52.328;13.070;2023-05-10T10:19:36;21.30;66.60
12815;DHT22;6472;52.328;13.070;2023-05-10T10:22:04;21.30;64.40
12815;DHT22;6472;52.328;13.070;2023-05-10T10:24:33;21.30;68.20
12815;DHT22;6472;52.328;13.070;2023-05-10T10:27:07;21.50;64.10
12815;DHT22;6472;52.328;13.070;2023-05-10T10:29:41;21.50;63.80
12815;DHT22;6472;52.328;13.070;2023-05-10T10:32:22;21.40;62.10
12815;DHT22;6472;52.328;13.070;2023-05-10T10:34:55;21.20;65.90
12815;DHT22;6472;52.328;13.070;2023-05-10T10:37:24;21.00;64.50
12815;DHT22;6472;52.328;13.070;2023-05-10T10:40:23;20.90;67.50
12815;DHT22;6472;52.328;13.070;2023-05-10T10:42:52;21.10;64.60
12815;DHT22;6472;52.328;13.070;2023-05-10T10:45:21;21.10;64.20
12815;DHT22;6472;52.328;13.070;2023-05-10T10:50:45;21.10;66.50
12815;DHT22;6472;52.328;13.070;2023-05-10T10:53:13;21.30;65.40
12815;DHT22;6472;52.328;13.070;2023-05-10T10:55:47;21.40;63.60
12815;DHT22;6472;52.328;13.070;2023-05-10T10:58:29;21.40;62.70
12815;DHT22;6472;52.328;13.070;2023-05-10T11:01:12;21.40;63.20
12815;DHT22;6472;52.328;13.070;2023-05-10T11:03:54;21.40;65.30
12815;DHT22;6472;52.328;13.070;2023-05-10T11:06:30;21.30;63.40
12815;DHT22;6472;52.328;13.070;2023-05-10T11:09:05;21.20;64.50
12815;DHT22;6472;52.328;13.070;2023-05-10T11:11:34;21.30;62.60
12815;DHT22;6472;52.328;13.070;2023-05-10T11:14:03;21.30;64.50
12815;DHT22;6472;52.328;13.070;2023-05-10T11:16:41;21.40;64.30
12815;DHT22;6472;52.328;13.070;2023-05-10T11:19:11;21.40;65.60
12815;DHT22;6472;52.328;13.070;2023-05-10T11:21:49;21.50;65.70
12815;DHT22;6472;52.328;13.070;2023-05-10T11:24:18;21.50;62.20
12815;DHT22;6472;52.328;13.070;2023-05-10T11:26:49;21.40;64.00
12815;DHT22;6472;52.328;13.070;2023-05-10T11:29:18;21.40;67.30
12815;DHT22;6472;52.328;13.070;2023-05-10T11:31:47;21.50;65.00
12815;DHT22;6472;52.328;13.070;2023-05-10T11:34:24;21.60;64.10
12815;DHT22;6472;52.328;13.070;2023-05-10T11:36:54;21.70;61.50
12815;DHT22;6472;52.328;13.070;2023-05-10T11:39:26;21.70;64.00
12815;DHT22;6472;52.328;13.070;2023-05-10T11:41:54;21.80;63.10
12815;DHT22;6472;52.328;13.070;2023-05-10T11:44:23;21.80;63.00
12815;DHT22;6472;52.328;13.070;2023-05-10T11:46:52;21.90;63.30
12815;DHT22;6472;52.328;13.070;2023-05-10T11:49:20;21.90;62.30
12815;DHT22;6472;52.328;13.070;2023-05-10T11:51:52;22.00;61.00
12815;DHT22;6472;52.328;13.070;2023-05-10T11:54:20;22.00;62.50
12815;DHT22;6472;52.328;13.070;2023-05-10T11:56:50;22.00;62.10
12815;DHT22;6472;52.328;13.070;2023-05-10T11:59:19;22.00;61.70
12815;DHT22;6472;52.328;13.070;2023-05-10T12:01:47;22.10;62.30
12815;DHT22;6472;52.328;13.070;2023-05-10T12:04:15;22.10;60.10
12815;DHT22;6472;52.328;13.070;2023-05-10T12:06:45;22.20;59.50
12815;DHT22;6472;52.328;13.070;2023-05-10T12:09:14;22.20;59.80
12815;DHT22;6472;52.328;13.070;2023-05-10T12:11:48;22.20;59.80
12815;DHT22;6472;52.328;13.070;2023-05-10T12:14:16;22.50;59.40
12815;DHT22;6472;52.328;13.070;2023-05-10T12:16:47;22.70;60.10
12815;DHT22;6472;52.328;13.070;2023-05-10T12:19:18;22.90;59.10
12815;DHT22;6472;52.328;13.070;2023-05-10T12:21:47;22.90;60.60
12815;DHT22;6472;52.328;13.070;2023-05-10T12:24:16;23.00;60.30
12815;DHT22;6472;52.328;13.070;2023-05-10T12:26:45;23.20;59.40
12815;DHT22;6472;52.328;13.070;2023-05-10T12:29:33;23.30;62.00
12815;DHT22;6472;52.328;13.070;2023-05-10T12:32:02;23.40;57.40
12815;DHT22;6472;52.328;13.070;2023-05-10T12:34:32;23.40;57.70
12815;DHT22;6472;52.328;13.070;2023-05-10T12:37:00;23.50;57.20
12815;DHT22;6472;52.328;13.070;2023-05-10T12:39:40;23.50;58.20
12815;DHT22;6472;52.328;13.070;2023-05-10T12:42:09;23.70;57.10
12815;DHT22;6472;52.328;13.070;2023-05-10T12:44:37;23.70;57.40
12815;DHT22;6472;52.328;13.070;2023-05-10T12:47:05;23.60;56.40
12815;DHT22;6472;52.328;13.070;2023-05-10T12:49:33;23.40;58.30
12815;DHT22;6472;52.328;13.070;2023-05-10T12:52:01;23.50;57.30
12815;DHT22;6472;52.328;13.070;2023-05-10T12:54:29;23.50;58.00
12815;DHT22;6472;52.328;13.070;2023-05-10T12:56:58;23.80;59.40
12815;DHT22;6472;52.328;13.070;2023-05-10T12:59:26;24.20;58.20
12815;DHT22;6472;52.328;13.070;2023-05-10T13:01:54;24.50;56.30
12815;DHT22;6472;52.328;13.070;2023-05-10T13:04:22;24.70;58.10
12815;DHT22;6472;52.328;13.070;2023-05-10T13:06:51;24.90;54.70
12815;DHT22;6472;52.328;13.070;2023-05-10T13:09:19;24.90;52.70
12815;DHT22;6472;52.328;13.070;2023-05-10T13:11:48;24.90;53.90
12815;DHT22;6472;52.328;13.070;2023-05-10T13:14:17;24.70;53.70
12815;DHT22;6472;52.328;13.070;2023-05-10T13:16:47;24.90;56.50
12815;DHT22;6472;52.328;13.070;2023-05-10T13:19:16;25.20;53.80
12815;DHT22;6472;52.328;13.070;2023-05-10T13:21:45;25.10;54.90
12815;DHT22;6472;52.328;13.070;2023-05-10T13:24:13;24.90;52.40
12815;DHT22;6472;52.328;13.070;2023-05-10T13:26:41;24.70;53.10
12815;DHT22;6472;52.328;13.070;2023-05-10T13:29:09;24.70;54.50
12815;DHT22;6472;52.328;13.070;2023-05-10T13:31:38;24.60;54.10
12815;DHT22;6472;52.328;13.070;2023-05-10T13:34:07;24.50;54.00
12815;DHT22;6472;52.328;13.070;2023-05-10T13:36:35;24.30;53.80
12815;DHT22;6472;52.328;13.070;2023-05-10T13:39:03;24.10;55.70
12815;DHT22;6472;52.328;13.070;2023-05-10T13:41:32;24.00;54.90
12815;DHT22;6472;52.328;13.070;2023-05-10T13:44:00;23.90;54.50
12815;DHT22;6472;52.328;13.070;2023-05-10T13:46:28;23.70;55.50
12815;DHT22;6472;52.328;13.070;2023-05-10T13:48:58;23.60;55.40
12815;DHT22;6472;52.328;13.070;2023-05-10T13:51:26;23.40;55.60
12815;DHT22;6472;52.328;13.070;2023-05-10T13:53:54;23.40;54.40
12815;DHT22;6472;52.328;13.070;2023-05-10T13:56:23;23.30;55.60
12815;DHT22;6472;52.328;13.070;2023-05-10T13:58:51;23.20;55.20
12815;DHT22;6472;52.328;13.070;2023-05-10T14:01:19;23.10;55.30
12815;DHT22;6472;52.328;13.070;2023-05-10T14:03:47;23.20;55.10
12815;DHT22;6472;52.328;13.070;2023-05-10T14:06:16;23.20;55.40
12815;DHT22;6472;52.328;13.070;2023-05-10T14:08:46;23.40;55.60
12815;DHT22;6472;52.328;13.070;2023-05-10T14:11:15;23.40;55.20
12815;DHT22;6472;52.328;13.070;2023-05-10T14:13:43;23.40;56.90
12815;DHT22;6472;52.328;13.070;2023-05-10T14:16:11;23.40;56.50
12815;DHT22;6472;52.328;13.070;2023-05-10T14:18:41;23.40;58.30
12815;DHT22;6472;52.328;13.070;2023-05-10T14:21:09;23.40;55.00
12815;DHT22;6472;52.328;13.070;2023-05-10T14:23:39;23.40;56.30
12815;DHT22;6472;52.328;13.070;2023-05-10T14:26:07;23.30;57.80
12815;DHT22;6472;52.328;13.070;2023-05-10T14:28:35;23.30;56.10
12815;DHT22;6472;52.328;13.070;2023-05-10T14:31:03;23.30;56.50
12815;DHT22;6472;52.328;13.070;2023-05-10T14:33:32;23.30;56.70
12815;DHT22;6472;52.328;13.070;2023-05-10T14:36:00;23.30;57.40
12815;DHT22;6472;52.328;13.070;2023-05-10T14:38:30;23.40;56.70
12815;DHT22;6472;52.328;13.070;2023-05-10T14:40:59;23.30;57.80
12815;DHT22;6472;52.328;13.070;2023-05-10T14:43:28;23.20;56.90
12815;DHT22;6472;52.328;13.070;2023-05-10T14:45:57;23.00;56.90
12815;DHT22;6472;52.328;13.070;2023-05-10T14:48:26;22.90;57.20
12815;DHT22;6472;52.328;13.070;2023-05-10T14:50:53;22.90;59.10
12815;DHT22;6472;52.328;13.070;2023-05-10T14:53:22;22.70;61.50
12815;DHT22;6472;52.328;13.070;2023-05-10T14:55:51;22.50;63.30
12815;DHT22;6472;52.328;13.070;2023-05-10T14:58:20;22.50;65.70
12815;DHT22;6472;52.328;13.070;2023-05-10T15:00:48;22.30;66.60
12815;DHT22;6472;52.328;13.070;2023-05-10T15:03:17;22.20;68.60
12815;DHT22;6472;52.328;13.070;2023-05-10T15:05:46;22.30;69.90
12815;DHT22;6472;52.328;13.070;2023-05-10T15:08:14;22.50;70.80
12815;DHT22;6472;52.328;13.070;2023-05-10T15:10:42;22.60;71.30
12815;DHT22;6472;52.328;13.070;2023-05-10T15:13:10;22.80;72.30
12815;DHT22;6472;52.328;13.070;2023-05-10T15:15:40;22.70;73.00
12815;DHT22;6472;52.328;13.070;2023-05-10T15:18:08;22.60;74.50
12815;DHT22;6472;52.328;13.070;2023-05-10T15:20:37;22.50;74.90
12815;DHT22;6472;52.328;13.070;2023-05-10T15:23:04;22.30;74.70
12815;DHT22;6472;52.328;13.070;2023-05-10T15:25:33;22.10;74.60
12815;DHT22;6472;52.328;13.070;2023-05-10T15:28:04;21.90;76.10
12815;DHT22;6472;52.328;13.070;2023-05-10T15:30:35;21.70;76.20
12815;DHT22;6472;52.328;13.070;2023-05-10T15:33:05;21.60;75.60
12815;DHT22;6472;52.328;13.070;2023-05-10T15:35:34;21.50;76.50
12815;DHT22;6472;52.328;13.070;2023-05-10T15:38:04;21.30;76.20
12815;DHT22;6472;52.328;13.070;2023-05-10T15:40:32;21.20;77.20
12815;DHT22;6472;52.328;13.070;2023-05-10T15:43:00;21.10;77.80
12815;DHT22;6472;52.328;13.070;2023-05-10T15:45:28;21.10;78.10
12815;DHT22;6472;52.328;13.070;2023-05-10T15:47:57;21.30;78.70
12815;DHT22;6472;52.328;13.070;2023-05-10T15:50:27;21.10;78.90
12815;DHT22;6472;52.328;13.070;2023-05-10T15:52:55;21.10;79.10
12815;DHT22;6472;52.328;13.070;2023-05-10T15:55:23;21.10;78.50